Time;durP1;ratioP1;P1;durP2;ratioP2;P2;SDS_P1;SDS_P2;PMS_P1;PMS_P2;Temp;Humidity;BMP_temperature;BMP_pressure;BME280_temperature;BME280_humidity;BME280_pressure;Samples;Min_cycle;Max_cycle;Signal;HPM_P1;HPM_P2
2023/07/13 00:02:15;;;;;;;;;;;;;;;19.42;91.79;95530.03;5094523;28;1049;-54
2023/07/13 00:04:41;;;;;;;;;;;;;;;19.50;91.42;95521.72;5094433;28;957;-54
2023/07/13 00:07:08;;;;;;;;;;;;;;;19.31;92.55;95526.09;5094330;28;1086;-54
2023/07/13 00:09:34;;;;;;;;;;;;;;;19.35;91.66;95525.66;5094425;28;1914;-54
2023/07/13 00:12:00;;;;;;;;;;;;;;;19.15;93.56;95531.88;5094507;28;1019;-55
2023/07/13 00:14:28;;;;;;;;;;;;;;;19.19;93.31;95526.91;5094195;28;1112;-54
2023/07/13 00:16:54;;;;;;;;;;;;;;;19.20;92.69;95523.97;5094209;28;1072;-55
2023/07/13 00:19:20;;;;;;;;;;;;;;;19.16;92.91;95522.72;5094091;28;976;-54
2023/07/13 00:21:47;;;;;;;;;;;;;;;19.35;92.51;95518.38;5094095;28;1060;-55
2023/07/13 00:24:15;;;;;;;;;;;;;;;19.48;91.75;95528.38;5093957;28;1681;-54
2023/07/13 00:26:44;;;;;;;;;;;;;;;19.48;91.76;95521.09;5093955;28;1125;-54
2023/07/13 00:29:10;;;;;;;;;;;;;;;19.19;92.01;95516.88;5094001;28;977;-54
2023/07/13 00:31:36;;;;;;;;;;;;;;;18.86;94.08;95524.94;5093696;28;1983;-55
2023/07/13 00:34:03;;;;;;;;;;;;;;;18.96;94.09;95521.84;5093865;28;1057;-54
2023/07/13 00:36:29;;;;;;;;;;;;;;;19.08;93.44;95506.63;5094041;28;1021;-55
2023/07/13 00:38:55;;;;;;;;;;;;;;;19.10;93.04;95513.53;5094041;28;1013;-55
2023/07/13 00:41:21;;;;;;;;;;;;;;;19.13;91.83;95519.59;5093869;28;1024;-54
2023/07/13 00:43:47;;;;;;;;;;;;;;;18.98;93.22;95525.19;5093874;28;973;-54
2023/07/13 00:46:16;;;;;;;;;;;;;;;19.13;92.33;95516.88;5093749;28;992;-54
2023/07/13 00:48:44;;;;;;;;;;;;;;;19.11;92.51;95514.38;5093683;28;1028;-55
2023/07/13 00:51:10;;;;;;;;;;;;;;;18.96;93.13;95519.13;5093614;28;1918;-54
2023/07/13 00:53:36;;;;;;;;;;;;;;;18.92;93.92;95516.81;5093827;28;985;-54
2023/07/13 00:56:02;;;;;;;;;;;;;;;18.95;93.47;95504.72;5093646;28;1025;-54
2023/07/13 00:58:29;;;;;;;;;;;;;;;18.72;93.89;95508.63;5093648;28;1020;-55
2023/07/13 01:00:55;;;;;;;;;;;;;;;18.65;94.69;95521.28;5093762;28;1021;-54
2023/07/13 01:03:21;;;;;;;;;;;;;;;18.91;93.05;95517.88;5093444;28;977;-55
2023/07/13 01:05:49;;;;;;;;;;;;;;;19.32;90.14;95505.22;5093745;28;1070;-55
2023/07/13 01:08:15;;;;;;;;;;;;;;;19.28;90.79;95509.41;5093638;28;1039;-54
2023/07/13 01:10:50;;;;;;;;;;;;;;;19.00;92.70;95509.56;5093547;28;1914;-55
2023/07/13 01:13:16;;;;;;;;;;;;;;;18.76;93.36;95513.63;5093578;28;1060;-54
2023/07/13 01:15:44;;;;;;;;;;;;;;;18.82;93.26;95510.13;5093406;28;1097;-54
2023/07/13 01:18:18;;;;;;;;;;;;;;;19.08;92.18;95503.94;5093286;28;989;-54
2023/07/13 01:21:10;;;;;;;;;;;;;;;19.18;90.85;95507.09;5093673;28;1289;-54
2023/07/13 01:23:36;;;;;;;;;;;;;;;18.75;92.45;95515.50;5090563;28;2327;-54
2023/07/13 01:26:02;;;;;;;;;;;;;;;18.61;93.93;95508.34;5093254;28;1537;-55
2023/07/13 01:28:29;;;;;;;;;;;;;;;18.70;93.80;95513.41;5093188;28;1112;-54
2023/07/13 01:30:56;;;;;;;;;;;;;;;18.72;93.46;95511.31;5093130;28;1999;-54
2023/07/13 01:33:22;;;;;;;;;;;;;;;18.43;94.73;95512.44;5093178;28;1112;-54
2023/07/13 01:35:48;;;;;;;;;;;;;;;18.32;95.31;95519.25;5093281;28;1645;-54
2023/07/13 01:38:15;;;;;;;;;;;;;;;18.24;95.80;95513.19;5096724;28;1055;-55
2023/07/13 01:40:41;;;;;;;;;;;;;;;18.23;96.15;95511.50;5097285;28;1039;-55
2023/07/13 01:43:08;;;;;;;;;;;;;;;18.25;95.11;95509.44;5097184;28;992;-54
2023/07/13 01:45:34;;;;;;;;;;;;;;;18.25;95.49;95509.44;5097040;28;1025;-54
2023/07/13 01:48:00;;;;;;;;;;;;;;;18.29;95.09;95516.13;5097262;28;1032;-54
2023/07/13 01:50:26;;;;;;;;;;;;;;;18.33;95.50;95510.09;5096903;28;1898;-55
2023/07/13 01:52:52;;;;;;;;;;;;;;;18.43;94.83;95512.44;5096944;28;1084;-54
2023/07/13 01:55:20;;;;;;;;;;;;;;;18.51;93.90;95514.97;5096942;28;984;-54
2023/07/13 01:57:46;;;;;;;;;;;;;;;18.47;93.98;95515.59;5096831;28;1863;-55
2023/07/13 02:00:12;;;;;;;;;;;;;;;18.36;94.59;95514.28;5097044;28;1148;-54
2023/07/13 02:02:38;;;;;;;;;;;;;;;18.38;94.65;95517.63;5097017;28;965;-54
2023/07/13 02:05:05;;;;;;;;;;;;;;;18.41;94.39;95519.94;5096722;28;992;-54
2023/07/13 02:07:31;;;;;;;;;;;;;;;18.34;94.24;95524.47;5096786;28;953;-54
2023/07/13 02:09:57;;;;;;;;;;;;;;;18.36;94.44;95526.97;5096653;28;1910;-54
2023/07/13 02:12:23;;;;;;;;;;;;;;;18.51;94.14;95517.69;5096546;28;1019;-54
2023/07/13 02:14:49;;;;;;;;;;;;;;;18.28;94.18;95517.97;5096802;28;959;-54
2023/07/13 02:17:15;;;;;;;;;;;;;;;18.19;94.83;95521.06;5096587;28;981;-53
2023/07/13 02:19:41;;;;;;;;;;;;;;;18.12;94.99;95515.63;5096583;28;1055;-54
2023/07/13 02:22:07;;;;;;;;;;;;;;;18.20;94.68;95522.75;5096369;28;947;-54
2023/07/13 02:24:33;;;;;;;;;;;;;;;18.26;94.99;95521.94;5096316;28;1641;-54
2023/07/13 02:27:00;;;;;;;;;;;;;;;18.37;93.93;95513.25;5096338;28;1056;-54
2023/07/13 02:29:26;;;;;;;;;;;;;;;18.32;94.21;95521.13;5096316;28;1238;-55
2023/07/13 02:31:52;;;;;;;;;;;;;;;18.26;94.45;95525.47;5096108;28;1906;-54
2023/07/13 02:34:18;;;;;;;;;;;;;;;18.17;93.88;95528.53;5096226;28;1072;-54
2023/07/13 02:36:44;;;;;;;;;;;;;;;17.97;95.03;95529.25;5096184;28;1860;-54
2023/07/13 02:39:11;;;;;;;;;;;;;;;17.87;95.59;95528.75;5096124;28;1044;-54
2023/07/13 02:41:37;;;;;;;;;;;;;;;17.85;96.10;95533.53;5096046;28;1039;-54
2023/07/13 02:44:04;;;;;;;;;;;;;;;17.86;96.81;95533.34;5095974;28;1046;-54
2023/07/13 02:46:30;;;;;;;;;;;;;;;17.97;95.74;95534.66;5096061;28;1040;-54
2023/07/13 02:48:56;;;;;;;;;;;;;;;18.14;94.61;95544.16;5096055;28;1013;-54
2023/07/13 02:51:22;;;;;;;;;;;;;;;18.19;94.51;95531.88;5095696;28;1894;-54
2023/07/13 02:53:48;;;;;;;;;;;;;;;18.25;94.22;95533.78;5095864;28;1008;-54
2023/07/13 02:56:14;;;;;;;;;;;;;;;18.40;93.61;95533.66;5095607;28;953;-54
2023/07/13 02:58:41;;;;;;;;;;;;;;;18.18;94.38;95532.94;5095615;28;1032;-54
2023/07/13 03:01:11;;;;;;;;;;;;;;;18.03;94.54;95533.03;5095867;28;989;-54
2023/07/13 03:03:37;;;;;;;;;;;;;;;17.66;96.63;95533.19;5095732;28;1060;-54
2023/07/13 03:06:05;;;;;;;;;;;;;;;17.72;96.38;95531.56;5095442;28;1145;-54
2023/07/13 03:08:31;;;;;;;;;;;;;;;17.67;97.43;95531.28;5095397;28;1036;-54
2023/07/13 03:11:01;;;;;;;;;;;;;;;17.68;97.57;95533.81;5095266;28;1914;-54
2023/07/13 03:13:28;;;;;;;;;;;;;;;17.94;95.57;95537.75;5095281;28;1870;-54
2023/07/13 03:15:54;;;;;;;;;;;;;;;18.00;95.48;95544.25;5095421;28;1873;-54
2023/07/13 03:18:19;;;;;;;;;;;;;;;18.04;95.60;95550.94;5095319;28;1032;-54
2023/07/13 03:20:45;;;;;;;;;;;;;;;18.11;95.43;95546.41;5095310;28;965;-53
2023/07/13 03:23:12;;;;;;;;;;;;;;;17.93;96.02;95545.06;5095076;28;969;-54
2023/07/13 03:25:38;;;;;;;;;;;;;;;18.00;95.16;95544.25;5094836;28;1319;-54
2023/07/13 03:28:05;;;;;;;;;;;;;;;18.00;95.74;95550.50;5095053;28;1057;-54
2023/07/13 03:30:31;;;;;;;;;;;;;;;18.00;96.10;95547.78;5094802;28;1914;-54
2023/07/13 03:32:57;;;;;;;;;;;;;;;18.03;95.87;95551.97;5095158;28;1128;-54
2023/07/13 03:35:23;;;;;;;;;;;;;;;18.13;94.40;95549.75;5094926;28;964;-53
2023/07/13 03:37:49;;;;;;;;;;;;;;;18.06;95.80;95541.59;5094869;28;1085;-54
2023/07/13 03:40:15;;;;;;;;;;;;;;;17.98;96.13;95539.03;5094728;28;1049;-54
2023/07/13 03:42:41;;;;;;;;;;;;;;;17.92;97.72;95545.25;5094822;28;1045;-53
2023/07/13 03:45:07;;;;;;;;;;;;;;;18.07;97.30;95545.97;5094874;28;961;-53
2023/07/13 03:47:33;;;;;;;;;;;;;;;18.11;96.72;95549.94;5094737;28;992;-54
2023/07/13 03:49:59;;;;;;;;;;;;;;;18.16;95.92;95545.84;5094627;28;1910;-54
2023/07/13 03:52:25;;;;;;;;;;;;;;;18.16;97.47;95537.72;5094592;28;961;-54
2023/07/13 03:54:51;;;;;;;;;;;;;;;18.31;97.67;95541.13;5094547;28;1038;-54
2023/07/13 03:57:18;;;;;;;;;;;;;;;18.54;95.63;95546.25;5094392;28;1083;-53
2023/07/13 03:59:44;;;;;;;;;;;;;;;18.79;93.85;95549.25;5094158;28;969;-54
2023/07/13 04:02:10;;;;;;;;;;;;;;;19.02;93.81;95550.81;5094531;28;1010;-54
2023/07/13 04:04:36;;;;;;;;;;;;;;;18.89;94.49;95549.75;5094508;28;1955;-54
2023/07/13 04:07:02;;;;;;;;;;;;;;;18.91;95.11;95558.53;5094478;28;993;-53
2023/07/13 04:09:28;;;;;;;;;;;;;;;19.01;95.78;95552.72;5094218;28;1326;-54
2023/07/13 04:11:54;;;;;;;;;;;;;;;18.98;96.04;95547.69;5094449;28;1989;-53
2023/07/13 04:14:20;;;;;;;;;;;;;;;19.03;96.55;95542.50;5094202;28;1849;-53
2023/07/13 04:16:46;;;;;;;;;;;;;;;19.09;97.02;95548.97;5094367;28;1221;-54
2023/07/13 04:19:13;;;;;;;;;;;;;;;19.14;96.06;95551.88;5094253;28;990;-54
2023/07/13 04:21:39;;;;;;;;;;;;;;;19.22;96.69;95543.59;5094122;28;1124;-54
2023/07/13 04:24:05;;;;;;;;;;;;;;;19.33;97.91;95542.16;5093976;28;1901;-54
2023/07/13 04:26:31;;;;;;;;;;;;;;;19.48;97.23;95545.50;5094118;28;1620;-54
2023/07/13 04:28:57;;;;;;;;;;;;;;;19.71;94.64;95557.84;5094310;28;917;-54
2023/07/13 04:31:23;;;;;;;;;;;;;;;19.85;93.67;95550.56;5093731;28;1906;-53
2023/07/13 04:33:50;;;;;;;;;;;;;;;20.00;91.33;95551.16;5093914;28;1038;-53
2023/07/13 04:36:16;;;;;;;;;;;;;;;20.38;89.61;95552.38;5093837;28;1100;-54
2023/07/13 04:38:43;;;;;;;;;;;;;;;20.60;87.93;95561.09;5093859;28;997;-54
2023/07/13 04:41:09;;;;;;;;;;;;;;;20.70;87.75;95561.50;5094079;28;1056;-55
2023/07/13 04:43:35;;;;;;;;;;;;;;;20.86;85.00;95561.00;5093785;28;1108;-55
2023/07/13 04:46:05;;;;;;;;;;;;;;;21.04;83.57;95564.91;5093787;28;1123;-55
2023/07/13 04:48:31;;;;;;;;;;;;;;;21.17;83.11;95559.41;5093768;28;991;-55
2023/07/13 04:50:58;;;;;;;;;;;;;;;21.31;84.22;95562.06;5093730;28;1910;-54
2023/07/13 04:53:24;;;;;;;;;;;;;;;21.39;82.58;95561.78;5093591;28;949;-54
2023/07/13 04:55:50;;;;;;;;;;;;;;;21.59;80.96;95550.81;5093671;28;1862;-54
2023/07/13 04:58:17;;;;;;;;;;;;;;;21.81;79.18;95559.41;5093730;28;1032;-54
2023/07/13 05:00:43;;;;;;;;;;;;;;;21.93;80.67;95559.53;5093581;28;1049;-54
2023/07/13 05:03:09;;;;;;;;;;;;;;;22.05;80.21;95556.94;5093679;28;1047;-54
2023/07/13 05:05:35;;;;;;;;;;;;;;;21.89;81.70;95559.13;5093511;28;1632;-55
2023/07/13 05:08:01;;;;;;;;;;;;;;;21.96;82.90;95554.47;5093500;28;1077;-55
2023/07/13 05:10:27;;;;;;;;;;;;;;;22.07;83.38;95555.66;5093626;28;1913;-55
2023/07/13 05:12:53;;;;;;;;;;;;;;;22.12;82.90;95564.00;5096724;28;981;-55
2023/07/13 05:15:22;;;;;;;;;;;;;;;22.22;82.95;95560.75;5097627;28;1030;-54
2023/07/13 05:17:49;;;;;;;;;;;;;;;22.31;82.62;95562.16;5097808;28;948;-54
2023/07/13 05:20:16;;;;;;;;;;;;;;;22.39;80.33;95564.59;5097558;28;1131;-54
2023/07/13 05:22:43;;;;;;;;;;;;;;;22.33;79.29;95559.19;5097527;28;1047;-54
2023/07/13 05:25:09;;;;;;;;;;;;;;;22.57;80.70;95565.66;5097373;28;1566;-54
2023/07/13 05:27:36;;;;;;;;;;;;;;;22.65;81.76;95570.81;5097685;28;1036;-54
2023/07/13 05:30:03;;;;;;;;;;;;;;;22.72;82.11;95577.00;5097338;28;1989;-54
2023/07/13 05:32:29;;;;;;;;;;;;;;;22.69;81.79;95576.63;5097337;28;1096;-54
2023/07/13 05:34:55;;;;;;;;;;;;;;;22.67;80.93;95582.34;5097410;28;1024;-54
2023/07/13 05:37:21;;;;;;;;;;;;;;;22.81;81.81;95588.47;5097176;28;1213;-54
2023/07/13 05:39:47;;;;;;;;;;;;;;;23.00;80.30;95587.38;5097238;28;1077;-55
2023/07/13 05:42:13;;;;;;;;;;;;;;;22.94;81.06;95591.03;5097356;28;1043;-55
2023/07/13 05:44:39;;;;;;;;;;;;;;;22.91;80.36;95593.38;5097357;28;961;-54
2023/07/13 05:47:05;;;;;;;;;;;;;;;23.17;77.35;95594.97;5097097;28;1041;-54
2023/07/13 05:49:31;;;;;;;;;;;;;;;23.26;78.43;95595.47;5097134;28;1044;-54
2023/07/13 05:51:57;;;;;;;;;;;;;;;23.32;80.29;95606.31;5096977;28;1986;-55
2023/07/13 05:54:23;;;;;;;;;;;;;;;23.39;78.25;95607.06;5096864;28;1320;-54
2023/07/13 05:56:49;;;;;;;;;;;;;;;23.30;78.08;95604.91;5097162;28;1055;-54
2023/07/13 05:59:15;;;;;;;;;;;;;;;23.44;78.41;95611.81;5096781;28;1107;-54
2023/07/13 06:01:41;;;;;;;;;;;;;;;23.77;74.95;95607.78;5096981;28;988;-54
2023/07/13 06:04:07;;;;;;;;;;;;;;;24.04;74.13;95607.44;5096761;28;1037;-54
2023/07/13 06:06:33;;;;;;;;;;;;;;;24.20;73.24;95600.44;5096608;28;1271;-54
2023/07/13 06:08:59;;;;;;;;;;;;;;;24.23;70.09;95602.72;5096708;28;1084;-54
2023/07/13 06:11:27;;;;;;;;;;;;;;;24.09;70.41;95608.41;5096670;28;1902;-54
2023/07/13 06:13:53;;;;;;;;;;;;;;;24.33;70.73;95605.69;5096781;28;1259;-54
2023/07/13 06:16:20;;;;;;;;;;;;;;;24.58;72.90;95605.47;5096524;28;1134;-54
2023/07/13 06:18:46;;;;;;;;;;;;;;;24.66;69.50;95596.06;5096526;28;1056;-54
2023/07/13 06:21:14;;;;;;;;;;;;;;;24.75;67.37;95600.94;5096422;28;977;-53
2023/07/13 06:23:40;;;;;;;;;;;;;;;24.84;67.49;95600.59;5095917;28;1111;-54
2023/07/13 06:26:06;;;;;;;;;;;;;;;25.04;62.83;95600.19;5096435;28;1537;-55
2023/07/13 06:28:32;;;;;;;;;;;;;;;25.36;66.01;95591.56;5096388;28;1039;-55
2023/07/13 06:30:58;;;;;;;;;;;;;;;25.47;65.91;95593.44;5096110;28;1987;-54
2023/07/13 06:33:25;;;;;;;;;;;;;;;25.64;65.53;95596.22;5096149;28;1096;-54
2023/07/13 06:35:51;;;;;;;;;;;;;;;25.76;66.39;95596.16;5096115;28;1028;-55
2023/07/13 06:38:17;;;;;;;;;;;;;;;25.97;67.87;95589.16;5096119;28;960;-55
2023/07/13 06:40:43;;;;;;;;;;;;;;;25.93;67.88;95583.34;5096037;28;1089;-55
2023/07/13 06:43:09;;;;;;;;;;;;;;;25.97;65.66;95576.31;5096017;28;1123;-55
2023/07/13 06:45:47;;;;;;;;;;;;;;;26.16;66.65;95578.78;5095903;28;1020;-55
2023/07/13 06:48:13;;;;;;;;;;;;;;;26.18;66.90;95573.88;5095648;28;1015;-55
2023/07/13 06:50:39;;;;;;;;;;;;;;;26.08;66.57;95571.81;5095912;28;1992;-55
2023/07/13 06:53:05;;;;;;;;;;;;;;;26.39;66.27;95573.16;5095645;28;1050;-55
2023/07/13 06:55:31;;;;;;;;;;;;;;;26.62;67.33;95574.88;5095488;28;1127;-55
2023/07/13 06:57:57;;;;;;;;;;;;;;;26.66;65.32;95570.56;5095726;28;989;-55
2023/07/13 07:00:23;;;;;;;;;;;;;;;26.77;69.14;95577.03;5095515;28;1041;-55
2023/07/13 07:02:49;;;;;;;;;;;;;;;26.83;67.99;95583.41;5096008;28;1145;-54
2023/07/13 07:05:15;;;;;;;;;;;;;;;27.03;67.79;95582.84;5095661;28;965;-55
2023/07/13 07:07:41;;;;;;;;;;;;;;;27.29;65.57;95589.50;5095394;28;1104;-55
2023/07/13 07:10:08;;;;;;;;;;;;;;;27.31;63.46;95579.09;5095447;28;1914;-55
2023/07/13 07:12:34;;;;;;;;;;;;;;;27.21;63.70;95588.03;5095331;28;1035;-55
2023/07/13 07:14:59;;;;;;;;;;;;;;;27.22;60.98;95577.84;5095346;28;1040;-55
2023/07/13 07:17:26;;;;;;;;;;;;;;;27.17;61.06;95577.81;5095185;28;1051;-55
2023/07/13 07:19:53;;;;;;;;;;;;;;;27.26;61.14;95559.81;5095103;28;1001;-55
2023/07/13 07:22:20;;;;;;;;;;;;;;;27.32;58.03;95557.97;5095072;28;1033;-55
2023/07/13 07:24:46;;;;;;;;;;;;;;;27.49;58.15;95563.38;5095049;28;1252;-55
2023/07/13 07:27:12;;;;;;;;;;;;;;;27.64;59.93;95563.53;5095004;28;1111;-55
2023/07/13 07:29:38;;;;;;;;;;;;;;;27.73;60.87;95561.16;5094798;28;1273;-55
2023/07/13 07:32:04;;;;;;;;;;;;;;;28.01;57.97;95557.34;5094874;28;1975;-55
2023/07/13 07:34:30;;;;;;;;;;;;;;;28.25;60.26;95560.56;5093906;28;1083;-54
2023/07/13 07:36:59;;;;;;;;;;;;;;;28.19;62.53;95562.44;5095097;28;960;-55
2023/07/13 07:39:25;;;;;;;;;;;;;;;28.21;61.42;95554.75;5094847;28;1036;-55
2023/07/13 07:41:51;;;;;;;;;;;;;;;28.05;60.63;95550.22;5095009;28;1021;-55
2023/07/13 07:44:17;;;;;;;;;;;;;;;28.24;61.42;95545.97;5094590;28;1218;-55
2023/07/13 07:46:43;;;;;;;;;;;;;;;28.47;59.25;95543.13;5094719;28;957;-55
2023/07/13 07:49:10;;;;;;;;;;;;;;;28.64;60.80;95541.03;5094504;28;1120;-55
2023/07/13 07:51:36;;;;;;;;;;;;;;;28.85;62.15;95543.91;5094426;28;1894;-55
2023/07/13 07:54:03;;;;;;;;;;;;;;;28.80;60.08;95541.97;5094524;28;1188;-55
2023/07/13 07:56:29;;;;;;;;;;;;;;;28.88;62.16;95538.72;5094498;28;1013;-55
2023/07/13 07:58:55;;;;;;;;;;;;;;;28.92;60.05;95536.25;5094489;28;1039;-55
2023/07/13 08:01:21;;;;;;;;;;;;;;;29.02;61.26;95536.28;5094333;28;1055;-55
2023/07/13 08:03:47;;;;;;;;;;;;;;;29.12;58.11;95541.00;5094318;28;1055;-55
2023/07/13 08:06:13;;;;;;;;;;;;;;;29.10;60.34;95532.19;5094225;28;1033;-55
2023/07/13 08:08:39;;;;;;;;;;;;;;;28.96;59.89;95540.94;5094223;28;1970;-55
2023/07/13 08:11:07;;;;;;;;;;;;;;;29.09;61.19;95530.56;5094152;28;1905;-55
2023/07/13 08:13:33;;;;;;;;;;;;;;;29.35;61.13;95526.81;5094009;28;1068;-55
2023/07/13 08:15:59;;;;;;;;;;;;;;;29.46;60.49;95529.59;5094039;28;1223;-55
2023/07/13 08:18:25;;;;;;;;;;;;;;;29.55;59.02;95526.03;5093978;28;996;-55
2023/07/13 08:20:51;;;;;;;;;;;;;;;29.80;59.60;95534.66;5094165;28;1055;-55
2023/07/13 08:23:18;;;;;;;;;;;;;;;29.89;57.57;95527.50;5093929;28;1052;-55
2023/07/13 08:25:50;;;;;;;;;;;;;;;29.78;58.69;95522.00;5093570;28;1292;-55
2023/07/13 08:28:16;;;;;;;;;;;;;;;29.82;58.38;95515.91;5093955;28;977;-55
2023/07/13 08:31:15;;;;;;;;;;;;;;;29.95;58.67;95515.38;5077969;28;1910;-56
2023/07/13 08:33:41;;;;;;;;;;;;;;;30.09;58.14;95513.72;5053585;28;1112;-55
2023/07/13 08:36:08;;;;;;;;;;;;;;;30.04;57.33;95507.38;5053473;28;1145;-55
2023/07/13 08:38:34;;;;;;;;;;;;;;;30.23;56.68;95510.41;5053638;28;989;-55
2023/07/13 08:41:09;;;;;;;;;;;;;;;30.34;55.62;95509.31;5053405;28;1038;-55
2023/07/13 08:43:37;;;;;;;;;;;;;;;30.35;55.32;95509.06;5053437;28;957;-55
2023/07/13 08:46:03;;;;;;;;;;;;;;;30.16;56.02;95508.75;5053445;28;1089;-55
2023/07/13 08:48:28;;;;;;;;;;;;;;;30.32;58.73;95497.75;5053267;28;1034;-55
2023/07/13 08:51:15;;;;;;;;;;;;;;;30.43;56.50;95498.53;5053276;28;1969;-55
2023/07/13 08:53:45;;;;;;;;;;;;;;;30.52;56.97;95503.22;5053296;28;1812;-55
2023/07/13 08:56:18;;;;;;;;;;;;;;;30.40;57.06;95494.41;5053449;28;1081;-55
2023/07/13 08:58:46;;;;;;;;;;;;;;;30.39;54.27;95489.16;5053237;28;1077;-55
2023/07/13 09:01:21;;;;;;;;;;;;;;;30.60;55.37;95490.81;5053236;28;1024;-54
2023/07/13 09:03:50;;;;;;;;;;;;;;;30.73;56.36;95492.13;5053272;28;968;-54
2023/07/13 09:06:17;;;;;;;;;;;;;;;30.72;56.92;95490.47;5052979;28;1099;-54
2023/07/13 09:08:52;;;;;;;;;;;;;;;30.69;54.74;95486.34;5053501;28;1031;-55
2023/07/13 09:11:27;;;;;;;;;;;;;;;30.83;56.35;95478.31;5053346;28;1975;-55
2023/07/13 09:13:53;;;;;;;;;;;;;;;30.96;56.11;95473.31;5053195;28;1022;-54
2023/07/13 09:16:20;;;;;;;;;;;;;;;30.94;56.90;95471.66;5053221;28;998;-55
2023/07/13 09:18:50;;;;;;;;;;;;;;;30.93;56.49;95464.47;5053071;28;1057;-56
2023/07/13 09:21:30;;;;;;;;;;;;;;;31.02;57.08;95464.72;5052928;28;1109;-56
2023/07/13 09:24:01;;;;;;;;;;;;;;;31.14;57.06;95462.44;5053119;28;1289;-56
2023/07/13 09:26:28;;;;;;;;;;;;;;;31.22;57.91;95460.19;5052789;28;1386;-56
2023/07/13 09:28:57;;;;;;;;;;;;;;;31.29;56.20;95471.78;5053051;28;1111;-55
2023/07/13 09:31:26;;;;;;;;;;;;;;;31.31;56.02;95467.59;5055015;28;1909;-56
2023/07/13 09:33:52;;;;;;;;;;;;;;;31.30;57.39;95479.78;5093549;28;1044;-56
2023/07/13 09:36:38;;;;;;;;;;;;;;;31.36;57.55;95477.81;5093290;28;1032;-56
2023/07/13 09:39:07;;;;;;;;;;;;;;;31.39;56.79;95477.22;5093278;28;984;-56
2023/07/13 09:41:43;;;;;;;;;;;;;;;31.42;55.63;95464.78;5093016;28;924;-55
2023/07/13 09:44:11;;;;;;;;;;;;;;;31.35;57.33;95467.03;5093326;28;1072;-56
2023/07/13 09:46:38;;;;;;;;;;;;;;;31.64;57.03;95483.72;5093022;28;1065;-56
2023/07/13 09:49:04;;;;;;;;;;;;;;;31.71;55.05;95487.00;5093032;28;1124;-55
2023/07/13 09:51:30;;;;;;;;;;;;;;;31.78;55.98;95478.38;5092997;28;1993;-55
2023/07/13 09:53:57;;;;;;;;;;;;;;;31.84;56.27;95477.25;5093040;28;1025;-56
2023/07/13 09:56:25;;;;;;;;;;;;;;;31.78;54.03;95475.59;5092844;28;1059;-55
2023/07/13 09:58:52;;;;;;;;;;;;;;;31.82;56.96;95472.00;5095744;28;1175;-56
2023/07/13 10:01:31;;;;;;;;;;;;;;;31.92;56.02;95474.66;5096614;28;1062;-56
2023/07/13 10:03:57;;;;;;;;;;;;;;;31.94;57.14;95470.78;5096935;28;1128;-56
2023/07/13 10:06:26;;;;;;;;;;;;;;;31.89;56.96;95463.34;5096579;28;1041;-55
2023/07/13 10:08:55;;;;;;;;;;;;;;;31.95;54.91;95459.47;5096653;28;1024;-56
2023/07/13 10:11:29;;;;;;;;;;;;;;;31.86;58.13;95453.72;5096366;28;1912;-56
2023/07/13 10:13:59;;;;;;;;;;;;;;;32.10;57.23;95455.75;5096706;28;1024;-55
2023/07/13 10:16:27;;;;;;;;;;;;;;;32.12;57.21;95452.69;5096935;28;1051;-56
2023/07/13 10:18:58;;;;;;;;;;;;;;;32.14;58.40;95447.69;5096546;28;1001;-56
2023/07/13 10:21:28;;;;;;;;;;;;;;;32.21;57.03;95445.41;5096311;28;1039;-56
2023/07/13 10:23:58;;;;;;;;;;;;;;;32.44;58.55;95433.56;5096299;28;1560;-55
2023/07/13 10:26:26;;;;;;;;;;;;;;;32.61;58.20;95435.06;5096226;28;1268;-56
2023/07/13 10:28:55;;;;;;;;;;;;;;;32.75;58.55;95435.19;5096432;28;1040;-56
2023/07/13 10:31:21;;;;;;;;;;;;;;;32.71;56.27;95423.88;5095857;28;1905;-56
2023/07/13 10:33:48;;;;;;;;;;;;;;;32.93;54.36;95428.03;5096134;28;1128;-55
2023/07/13 10:36:37;;;;;;;;;;;;;;;33.03;53.69;95419.56;5095952;28;1871;-56
2023/07/13 10:39:04;;;;;;;;;;;;;;;33.04;52.88;95407.38;5088059;28;1768;-56
2023/07/13 10:41:32;;;;;;;;;;;;;;;33.03;53.92;95402.97;5096036;28;1047;-56
2023/07/13 10:43:58;;;;;;;;;;;;;;;33.02;55.91;95402.13;5095967;28;1087;-56
2023/07/13 10:46:30;;;;;;;;;;;;;;;33.14;57.17;95401.72;5095844;28;1027;-55
2023/07/13 10:49:01;;;;;;;;;;;;;;;33.22;56.53;95401.06;5095866;28;1047;-56
2023/07/13 10:51:28;;;;;;;;;;;;;;;33.18;53.69;95388.09;5095669;28;1906;-55
2023/07/13 10:54:09;;;;;;;;;;;;;;;33.16;52.98;95387.59;5095746;28;1124;-56
2023/07/13 10:56:36;;;;;;;;;;;;;;;33.22;53.26;95390.00;5095716;28;997;-56
2023/07/13 10:59:10;;;;;;;;;;;;;;;33.25;53.24;95383.84;5095637;28;1151;-56
2023/07/13 11:01:40;;;;;;;;;;;;;;;33.37;54.47;95386.19;5095644;28;1011;-56
2023/07/13 11:04:11;;;;;;;;;;;;;;;33.41;53.04;95392.75;5095595;28;1058;-56
2023/07/13 11:06:46;;;;;;;;;;;;;;;33.33;53.20;95389.81;5095688;28;1013;-56
2023/07/13 11:09:40;;;;;;;;;;;;;;;33.38;50.62;95387.00;5094155;28;1115;-56
2023/07/13 11:12:09;;;;;;;;;;;;;;;33.59;48.99;95377.22;5093179;28;1902;-55
2023/07/13 11:14:58;;;;;;;;;;;;;;;33.63;49.82;95386.59;5095557;28;1004;-55
2023/07/13 11:17:27;;;;;;;;;;;;;;;33.76;50.10;95373.91;5087292;28;1296;-55
2023/07/13 11:20:04;;;;;;;;;;;;;;;33.85;50.07;95368.50;5095349;28;961;-55
2023/07/13 11:22:43;;;;;;;;;;;;;;;33.87;47.56;95369.03;5095073;28;1023;-55
2023/07/13 11:25:37;;;;;;;;;;;;;;;33.94;48.28;95366.69;5095222;28;1757;-55
2023/07/13 11:28:14;;;;;;;;;;;;;;;34.00;47.09;95364.66;5093038;28;1712;-55
2023/07/13 11:30:45;;;;;;;;;;;;;;;33.82;49.16;95358.00;5094984;28;1906;-55
2023/07/13 11:33:14;;;;;;;;;;;;;;;33.88;48.23;95353.19;5094834;28;1096;-55
2023/07/13 11:36:04;;;;;;;;;;;;;;;34.01;47.80;95349.63;5094564;28;1870;-55
2023/07/13 11:38:35;;;;;;;;;;;;;;;34.10;45.93;95350.56;5094411;28;1378;-55
2023/07/13 11:41:04;;;;;;;;;;;;;;;33.98;46.01;95333.63;5094862;28;1281;-55
2023/07/13 11:43:30;;;;;;;;;;;;;;;33.98;49.27;95330.84;5095035;28;1024;-55
2023/07/13 11:45:56;;;;;;;;;;;;;;;33.94;48.03;95321.47;5094862;28;1054;-55
2023/07/13 11:48:31;;;;;;;;;;;;;;;33.99;49.00;95321.38;5094664;28;1049;-55
2023/07/13 11:51:00;;;;;;;;;;;;;;;34.07;44.64;95317.88;5094683;28;2000;-55
2023/07/13 11:53:28;;;;;;;;;;;;;;;34.20;48.47;95316.28;5094589;28;1108;-55
2023/07/13 11:55:54;;;;;;;;;;;;;;;34.19;42.95;95320.22;5094863;28;1053;-55
2023/07/13 11:58:23;;;;;;;;;;;;;;;34.30;44.70;95310.56;5094398;28;1666;-56
2023/07/13 12:00:50;;;;;;;;;;;;;;;34.37;40.20;95313.72;5093322;28;1359;-55
2023/07/13 12:03:19;;;;;;;;;;;;;;;34.42;40.51;95316.41;5093006;28;1106;-54
2023/07/13 12:05:57;;;;;;;;;;;;;;;34.60;35.93;95328.53;5093094;28;1264;-55
2023/07/13 12:08:23;;;;;;;;;;;;;;;34.64;37.77;95317.59;5091853;28;1233;-55
2023/07/13 12:10:55;;;;;;;;;;;;;;;34.70;37.13;95312.78;5093020;28;1906;-55
2023/07/13 12:13:22;;;;;;;;;;;;;;;34.75;36.83;95315.47;5092936;28;1212;-55
2023/07/13 12:15:48;;;;;;;;;;;;;;;34.79;37.07;95316.47;5093183;28;1244;-55
2023/07/13 12:18:29;;;;;;;;;;;;;;;34.76;37.97;95303.22;5092890;28;1283;-55
2023/07/13 12:20:57;;;;;;;;;;;;;;;34.74;39.79;95298.00;5090364;28;1225;-55
2023/07/13 12:23:25;;;;;;;;;;;;;;;34.50;38.36;95298.19;5093029;28;1236;-55
2023/07/13 12:25:52;;;;;;;;;;;;;;;34.54;38.27;95295.63;5090199;28;1353;-55
2023/07/13 12:28:38;;;;;;;;;;;;;;;34.73;37.61;95301.88;5092779;28;1280;-55
2023/07/13 12:31:06;;;;;;;;;;;;;;;34.93;36.91;95297.84;5092062;28;1980;-55
2023/07/13 12:33:33;;;;;;;;;;;;;;;35.05;36.39;95302.84;5089877;28;1802;-55
2023/07/13 12:36:04;;;;;;;;;;;;;;;35.16;35.84;95289.53;5092694;28;1458;-55
2023/07/13 12:38:31;;;;;;;;;;;;;;;35.24;36.88;95291.56;5092812;28;1323;-55
2023/07/13 12:40:57;;;;;;;;;;;;;;;35.14;35.73;95292.63;5092869;28;1268;-55
2023/07/13 12:43:24;;;;;;;;;;;;;;;35.01;36.83;95285.16;5092624;28;1301;-55
2023/07/13 12:46:01;;;;;;;;;;;;;;;35.05;35.22;95290.91;5092369;28;1248;-55
2023/07/13 12:48:28;;;;;;;;;;;;;;;34.95;35.94;95289.19;5092534;28;1341;-55
2023/07/13 12:50:55;;;;;;;;;;;;;;;34.93;35.39;95283.13;5092461;28;1905;-55
2023/07/13 12:53:23;;;;;;;;;;;;;;;34.88;36.40;95278.50;5092420;28;1237;-55
2023/07/13 12:55:52;;;;;;;;;;;;;;;34.81;36.83;95269.78;5092536;28;1311;-54
2023/07/13 12:58:25;;;;;;;;;;;;;;;34.94;36.69;95270.88;5092472;28;1240;-55
2023/07/13 13:00:53;;;;;;;;;;;;;;;34.98;36.32;95269.94;5089889;28;1157;-55
2023/07/13 13:03:39;;;;;;;;;;;;;;;34.88;37.84;95267.41;5092184;28;1097;-55